メインページ
METAR-TAF:

METAR-TAF

空港 :

Chautauqua County/Dunkirk Airport

Dunkirk, ニューヨーク, アメリカ合衆国

緯度: 42-29-35N, 経度: 079-16-33W, 海抜: 211m

現時点の気象観測

当レポートは15分前の17:53(UTC)に作成
西の風 10kt
気温 26°C
湿度 74%
気圧 1014 hPa
視程: 16.1km
高度1600ftの雲は散在している
高度2200ftの千切れ雲あり
高度3000ftの千切れ雲あり

METAR: KDKK 211753Z AUTO 27010KT 10SM SCT016 BKN022 BKN030 26/21 A2993 RMK AO2 SLP131 T02560206 10267 20239 50005 $

時間: 14:08 (18:08 UTC)


TAF: 見つかりません

4,000以上の空港の気象観測と天気予報(METAR報とTAF報)

利用可能な観測所は地図上に黄色い丸と赤い丸で示す。

丸の上にカーソルを重ねると観測所名を参照できる。

次にクリックすると気象観測と天気予報を参照できる。

マップの切り替え:黒色「×」印の緑ボタンをクリックして拡大、「-」印の緑ボタンをクリックして縮小、緑色の三角印をクリックして隣りの地図に切り替え


METAR-TAF: